This is the latest recevied weather packets stored in our database for station/object SA3VCC-15. If no packets are shown the sender has not sent any weather packets the latest 10 day(s).
| Time | Temp. | Humidity | Pressure | Rain* | Wind** | Luminosity | Snow |
|---|---|---|---|---|---|---|---|
| 1777740250 | 19.44° C | 28% | 1002.7 hPa | - | - | - | - |
| 1777738990 | 20° C | 26% | 1002.6 hPa | - | - | - | - |
| 1777737730 | 21.67° C | 25% | 1002.6 hPa | - | - | - | - |
| 1777736470 | 22.22° C | 24% | 1002.5 hPa | - | - | - | - |
| 1777732690 | 31.11° C | 17% | 1002.8 hPa | - | - | - | - |
| 1777731430 | 31.11° C | 16% | 1003 hPa | - | - | - | - |
| 1777730170 | 30.56° C | 15% | 1003.3 hPa | - | - | - | - |
| 1777728910 | 30° C | 16% | 1003.5 hPa | - | - | - | - |
| 1777726390 | 22.78° C | 22% | 1004 hPa | - | - | - | - |
| 1777725130 | 23.89° C | 21% | 1004.3 hPa | - | - | - | - |
| 1777723870 | 24.44° C | 18% | 1004.6 hPa | - | - | - | - |
| 1777722610 | 28.33° C | 16% | 1004.8 hPa | - | - | - | - |
| 1777720089 | 27.22° C | 19% | 1005.5 hPa | - | - | - | - |
| 1777718829 | 26.11° C | 20% | 1005.5 hPa | - | - | - | - |
| 1777717569 | 25° C | 20% | 1005.7 hPa | - | - | - | - |
| 1777716309 | 25.56° C | 20% | 1005.9 hPa | - | - | - | - |
| 1777715049 | 24.44° C | 22% | 1006.1 hPa | - | - | - | - |
| 1777713789 | 23.89° C | 22% | 1006.2 hPa | - | - | - | - |
| 1777712529 | 23.33° C | 24% | 1006.5 hPa | - | - | - | - |
| 1777711269 | 23.89° C | 25% | 1006.6 hPa | - | - | - | - |
| 1777710009 | 23.89° C | 28% | 1006.8 hPa | - | - | - | - |
| 1777707489 | 22.78° C | 30% | 1007.1 hPa | - | - | - | - |
| 1777706229 | 22.78° C | 29% | 1007.4 hPa | - | - | - | - |
| 1777704969 | 21.11° C | 30% | 1007.5 hPa | - | - | - | - |
| 1777703709 | 19.44° C | 35% | 1007.6 hPa | - | - | - | - |
* Rain since midnight (hover to see other rain measurements)
** Current wind speed in m/s (hover to see current wind gust speed)